METAR Data
IDs: Format: Raw Decoded Include TAF

Data at: 0315 UTC 25 Jan 2020

METAR for:KMXO (Monticello Rgnl, IA, US)
Text:KMXO 250255Z AUTO 33008KT 6SM BR OVC008 01/01 A2986 RMK AO2
Temperature: 1.0°C ( 34°F)
Dewpoint: 1.0°C ( 34°F) [RH = 100%]
Pressure (altimeter):29.86 inches Hg (1011.3 mb)
Winds:from the NNW (330 degrees) at 9 MPH (8 knots; 4.1 m/s)
Visibility: 6 sm ( 10 km)
Ceiling:800 feet AGL
Clouds: overcast cloud deck at 800 feet AGL
Weather:BR (mist)
QC Flag:automated observation with no human augmentation